Weather History for Glendive, MT

Change the Weather History Date:

Saturday, July 13, 2013

  Actual Average Record
Temperature  
Mean Temperature 76 °F -  
Max Temperature 93 °F 84 °F 104 °F (2005)
Min Temperature 59 °F 57 °F 42 °F (2008)
Cooling Degree Days 11    
Growing Degree Days 26 (Base 50)    
Moisture  
Dew Point 57 °F    
Average Humidity 59    
Maximum Humidity 82    
Minimum Humidity 34    
Precipitation  
Precipitation 0.00 in - - ()
Sea Level Pressure  
Sea Level Pressure 29.95 in    
Wind  
Wind Speed 10 mph (NNE)    
Max Wind Speed 40 mph    
Max Gust Speed 48 mph    
Visibility 10 miles    
Events      
Averages and records for this station are not official NWS values.
T = Trace of Precipitation, MM = Missing Value Source: NWS Daily Summary

Daily Weather History Graph

Daily Weather History Graph

Search for Another Location

Airport:

Trip Planner

Search our weather history database for the weather conditions in past years. The results will help you decide how hot, cold, wet, or windy it might be!

Date:

Astronomy

Jul. 13, 2013 Rise Set
Actual Time 5:17 AM MDT 8:52 PM MDT
Civil Twilight 4:38 AM MDT 9:30 PM MDT
Nautical Twilight 3:47 AM MDT 10:21 PM MDT
Astronomical Twilight 2:37 AM MDT 11:30 PM MDT
Moon 11:00 AM MDT (7/13) 11:07 PM MDT (7/13)
Length of Visible Light 16h 51m
Length of Day
15h 35m
Waxing Crescent, 26% of the Moon is Illuminated
Jul 13
Waxing Crescent
Jul 15
First Quarter
Jul 22
Full
Jul 29
Last Quarter
Aug 6
New

Hourly Weather History & Observations

Time (MDT) Temp. Heat Index Dew Point Humidity Pressure Visibility Wind Dir Wind Speed Gust Speed Precip Events Conditions
12:15 AM 66.2 °F - 53.6 °F 64% 29.90 in 5.0 mi Calm Calm - N/A   Clear
12:35 AM 62.6 °F - 51.8 °F 68% 29.93 in 10.0 mi NW 3.5 mph - N/A   Clear
12:55 AM 60.8 °F - 53.6 °F 77% 29.91 in 10.0 mi North 8.1 mph - N/A   Clear
1:15 AM 62.6 °F - 53.6 °F 72% 29.92 in 10.0 mi Calm Calm - N/A   Clear
1:35 AM 60.8 °F - 53.6 °F 77% 29.92 in 10.0 mi North 4.6 mph - N/A   Clear
1:55 AM 62.6 °F - 55.4 °F 77% 29.91 in 10.0 mi NE 6.9 mph - N/A   Clear
2:15 AM 62.6 °F - 53.6 °F 72% 29.92 in 10.0 mi NNE 5.8 mph - N/A   Clear
2:35 AM 62.6 °F - 53.6 °F 72% 29.93 in 10.0 mi NNE 5.8 mph - N/A   Clear
3:15 AM 60.8 °F - 53.6 °F 77% 29.92 in 10.0 mi NNW 9.2 mph - N/A   Clear
3:35 AM 60.8 °F - 51.8 °F 72% 29.94 in 10.0 mi North 5.8 mph - N/A   Clear
3:55 AM 60.8 °F - 53.6 °F 77% 29.94 in 10.0 mi North 6.9 mph - N/A   Clear
4:15 AM 62.6 °F - 53.6 °F 72% 29.94 in 10.0 mi East 6.9 mph - N/A   Clear
4:35 AM 62.6 °F - 53.6 °F 72% 29.95 in 10.0 mi ENE 8.1 mph - N/A   Clear
4:55 AM 60.8 °F - 53.6 °F 77% 29.93 in 10.0 mi ENE 6.9 mph - N/A   Clear
5:15 AM 60.8 °F - 53.6 °F 77% 29.93 in 10.0 mi ENE 6.9 mph - N/A   Clear
5:35 AM 60.8 °F - 53.6 °F 77% 29.92 in 10.0 mi ENE 6.9 mph - N/A   Clear
5:55 AM 60.8 °F - 55.4 °F 82% 29.95 in 10.0 mi ENE 6.9 mph - N/A   Clear
6:15 AM 62.6 °F - 55.4 °F 77% 29.95 in 10.0 mi ENE 6.9 mph - N/A   Clear
6:35 AM 62.6 °F - 55.4 °F 77% 29.95 in 10.0 mi NE 5.8 mph - N/A   Clear
6:55 AM 64.4 °F - 55.4 °F 73% 29.94 in 10.0 mi ENE 9.2 mph - N/A   Clear
7:15 AM 66.2 °F - 57.2 °F 73% 29.92 in 10.0 mi ENE 9.2 mph - N/A   Clear
7:35 AM 68.0 °F - 57.2 °F 68% 29.92 in 10.0 mi NNE 9.2 mph - N/A   Clear
7:55 AM 69.8 °F - 59.0 °F 68% - 10.0 mi East 9.2 mph - N/A   Clear
8:15 AM 71.6 °F - 59.0 °F 64% - 10.0 mi NE 11.5 mph - N/A   Clear
8:35 AM 71.6 °F - 59.0 °F 64% - 10.0 mi ENE 10.4 mph - N/A   Clear
8:55 AM 73.4 °F - 60.8 °F 65% - 10.0 mi NE 9.2 mph - N/A   Clear
9:15 AM 75.2 °F - 60.8 °F 61% - 10.0 mi ENE 10.4 mph - N/A   Clear
9:35 AM 77.0 °F - 62.6 °F 61% - 10.0 mi East 9.2 mph - N/A   Clear
9:55 AM 78.8 °F - 62.6 °F 57% 29.93 in 10.0 mi SE 8.1 mph - N/A   Clear
10:15 AM 82.4 °F 83.4 °F 62.6 °F 51% 29.93 in 10.0 mi SSE 12.7 mph 18.4 mph N/A   Clear
10:35 AM 82.4 °F 82.9 °F 60.8 °F 48% 29.92 in 10.0 mi SSE 18.4 mph 23.0 mph N/A   Clear
10:55 AM 84.2 °F 85.0 °F 62.6 °F 48% - 10.0 mi SSE 19.6 mph 23.0 mph N/A   Clear
11:15 AM 86.0 °F 86.6 °F 62.6 °F 45% - 10.0 mi South 17.3 mph 24.2 mph N/A   Clear
11:35 AM 86.0 °F 86.6 °F 62.6 °F 45% - 10.0 mi SSE 16.1 mph 28.8 mph N/A   Clear
11:55 AM 87.8 °F 89.4 °F 64.4 °F 46% - 10.0 mi South 16.1 mph 24.2 mph N/A   Clear
12:15 PM 87.8 °F 89.4 °F 64.4 °F 46% - 10.0 mi South 20.7 mph 26.5 mph N/A   Clear
12:35 PM 89.6 °F 91.1 °F 64.4 °F 43% - 10.0 mi South 16.1 mph 20.7 mph N/A   Clear
12:55 PM 89.6 °F 91.1 °F 64.4 °F 43% - 10.0 mi South 20.7 mph 25.3 mph N/A   Clear
1:15 PM 91.4 °F 93.2 °F 64.4 °F 41% - 10.0 mi South 13.8 mph 28.8 mph N/A   Clear
1:35 PM 91.4 °F 93.2 °F 64.4 °F 41% - 10.0 mi South 15.0 mph 20.7 mph N/A   Clear
1:55 PM 91.4 °F 93.2 °F 64.4 °F 41% - 10.0 mi SSW 13.8 mph 24.2 mph N/A   Partly Cloudy
2:15 PM 93.2 °F 94.9 °F 64.4 °F 38% - 10.0 mi SSW 13.8 mph 19.6 mph N/A   Clear
2:35 PM 91.4 °F 92.1 °F 62.6 °F 38% - 10.0 mi SW 11.5 mph - N/A   Partly Cloudy
2:55 PM 93.2 °F 93.3 °F 60.8 °F 34% - 10.0 mi SW 6.9 mph - N/A   Clear
3:15 PM 91.4 °F 92.1 °F 62.6 °F 38% - 10.0 mi WSW 9.2 mph - N/A   Clear
3:35 PM 93.2 °F 94.1 °F 62.6 °F 36% - 10.0 mi West 16.1 mph 21.9 mph N/A   Partly Cloudy
3:55 PM 91.4 °F 93.2 °F 64.4 °F 41% - 10.0 mi WNW 23.0 mph 27.6 mph N/A   Clear
4:15 PM 89.6 °F 90.1 °F 62.6 °F 40% - 10.0 mi WNW 19.6 mph 29.9 mph N/A   Clear
4:35 PM 86.0 °F 86.1 °F 60.8 °F 43% - 10.0 mi NW 23.0 mph 32.2 mph N/A   Clear
4:55 PM 86.0 °F 86.1 °F 60.8 °F 43% - 10.0 mi NW 24.2 mph 34.5 mph N/A   Clear
5:15 PM 86.0 °F 85.4 °F 59.0 °F 40% - 10.0 mi NW 26.5 mph 34.5 mph N/A   Clear
5:35 PM 82.4 °F 83.4 °F 62.6 °F 51% - 10.0 mi NNW 33.4 mph 41.4 mph N/A   Clear
5:55 PM 78.8 °F - 60.8 °F 54% - 10.0 mi NNW 40.3 mph 44.9 mph N/A   Clear
6:35 PM 73.4 °F - 55.4 °F 53% - 10.0 mi NNW 39.1 mph 48.3 mph N/A   Clear
6:55 PM 71.6 °F - 53.6 °F 53% - 10.0 mi NNW 35.7 mph 44.9 mph N/A   Clear
7:15 PM 69.8 °F - 53.6 °F 56% - 10.0 mi NNE 26.5 mph 38.0 mph N/A   Clear
7:35 PM 68.0 °F - 53.6 °F 60% - 10.0 mi North 24.2 mph 34.5 mph N/A   Clear
7:55 PM 64.4 °F - 50.0 °F 59% - 10.0 mi NNE 25.3 mph 33.4 mph N/A   Clear
8:15 PM 64.4 °F - 48.2 °F 56% - 10.0 mi NNE 26.5 mph 29.9 mph N/A   Clear
8:35 PM 62.6 °F - 48.2 °F 59% - 10.0 mi NNE 13.8 mph - N/A   Clear
8:55 PM 62.6 °F - 48.2 °F 59% 30.12 in 10.0 mi North 13.8 mph - N/A   Clear
9:15 PM 60.8 °F - 48.2 °F 63% 30.12 in 10.0 mi North 12.7 mph - N/A   Clear
9:35 PM 60.8 °F - 48.2 °F 63% - 10.0 mi NNW 10.4 mph - N/A   Clear
9:55 PM 60.8 °F - 48.2 °F 63% 30.15 in 10.0 mi NNW 10.4 mph - N/A   Clear
10:15 PM 59.0 °F - 48.2 °F 67% - 10.0 mi NNW 13.8 mph - N/A   Clear
10:35 PM 59.0 °F - 48.2 °F 67% - 10.0 mi NW 15.0 mph - N/A   Clear
10:55 PM 59.0 °F - 50.0 °F 72% - 10.0 mi NNW 15.0 mph - N/A   Clear
11:15 PM 59.0 °F - 48.2 °F 67% - 10.0 mi NNW 13.8 mph - N/A   Clear
11:35 PM 60.8 °F - 48.2 °F 63% - 10.0 mi North 19.6 mph 25.3 mph N/A   Clear
11:55 PM 60.8 °F - 48.2 °F 63% - 10.0 mi North 17.3 mph - N/A   Clear